sensor_id;sensor_type;location;lat;lon;timestamp;temperature;humidity
73137;DHT22;67767;45.636;11.756;2023-09-19T00:00:57;22.60;91.30
73137;DHT22;67767;45.636;11.756;2023-09-19T00:03:23;22.60;91.20
73137;DHT22;67767;45.636;11.756;2023-09-19T00:05:50;22.50;91.10
73137;DHT22;67767;45.636;11.756;2023-09-19T00:08:16;22.50;91.20
73137;DHT22;67767;45.636;11.756;2023-09-19T00:10:42;22.40;91.30
73137;DHT22;67767;45.636;11.756;2023-09-19T00:13:09;22.40;91.40
73137;DHT22;67767;45.636;11.756;2023-09-19T00:15:46;22.30;91.90
73137;DHT22;67767;45.636;11.756;2023-09-19T00:18:16;22.30;92.30
73137;DHT22;67767;45.636;11.756;2023-09-19T00:20:44;22.20;92.10
73137;DHT22;67767;45.636;11.756;2023-09-19T00:23:13;22.30;92.20
73137;DHT22;67767;45.636;11.756;2023-09-19T00:25:39;22.10;92.80
73137;DHT22;67767;45.636;11.756;2023-09-19T00:28:06;22.10;92.60
73137;DHT22;67767;45.636;11.756;2023-09-19T00:30:33;22.20;92.50
73137;DHT22;67767;45.636;11.756;2023-09-19T00:33:00;22.20;92.10
73137;DHT22;67767;45.636;11.756;2023-09-19T00:35:26;22.20;92.30
73137;DHT22;67767;45.636;11.756;2023-09-19T00:37:53;22.20;92.30
73137;DHT22;67767;45.636;11.756;2023-09-19T00:40:19;22.20;92.90
73137;DHT22;67767;45.636;11.756;2023-09-19T00:42:47;22.10;92.20
73137;DHT22;67767;45.636;11.756;2023-09-19T00:45:15;22.00;92.50
73137;DHT22;67767;45.636;11.756;2023-09-19T00:47:45;22.10;92.10
73137;DHT22;67767;45.636;11.756;2023-09-19T00:50:18;22.00;93.00
73137;DHT22;67767;45.636;11.756;2023-09-19T00:52:46;22.00;92.60
73137;DHT22;67767;45.636;11.756;2023-09-19T00:55:15;21.90;92.80
73137;DHT22;67767;45.636;11.756;2023-09-19T00:57:41;22.00;92.30
73137;DHT22;67767;45.636;11.756;2023-09-19T01:00:08;21.90;92.60
73137;DHT22;67767;45.636;11.756;2023-09-19T01:02:41;21.80;92.40
73137;DHT22;67767;45.636;11.756;2023-09-19T01:05:08;21.80;92.30
73137;DHT22;67767;45.636;11.756;2023-09-19T01:07:35;21.80;92.30
73137;DHT22;67767;45.636;11.756;2023-09-19T01:10:06;21.70;92.70
73137;DHT22;67767;45.636;11.756;2023-09-19T01:29:44;21.90;91.70
73137;DHT22;67767;45.636;11.756;2023-09-19T01:32:16;21.80;91.90
73137;DHT22;67767;45.636;11.756;2023-09-19T01:37:17;21.60;91.90
73137;DHT22;67767;45.636;11.756;2023-09-19T01:39:59;21.70;92.50
73137;DHT22;67767;45.636;11.756;2023-09-19T01:51:00;21.60;92.20
73137;DHT22;67767;45.636;11.756;2023-09-19T01:53:42;21.50;92.20
73137;DHT22;67767;45.636;11.756;2023-09-19T01:56:16;21.60;92.10
73137;DHT22;67767;45.636;11.756;2023-09-19T01:58:48;21.60;92.00
73137;DHT22;67767;45.636;11.756;2023-09-19T02:01:20;21.50;92.30
73137;DHT22;67767;45.636;11.756;2023-09-19T02:03:48;21.50;92.60
73137;DHT22;67767;45.636;11.756;2023-09-19T02:06:16;21.60;92.30
73137;DHT22;67767;45.636;11.756;2023-09-19T02:08:43;21.70;92.20
73137;DHT22;67767;45.636;11.756;2023-09-19T02:11:13;21.50;91.90
73137;DHT22;67767;45.636;11.756;2023-09-19T02:13:39;21.50;92.10
73137;DHT22;67767;45.636;11.756;2023-09-19T02:16:06;21.40;92.40
73137;DHT22;67767;45.636;11.756;2023-09-19T02:18:34;21.30;92.70
73137;DHT22;67767;45.636;11.756;2023-09-19T02:21:01;21.30;93.20
73137;DHT22;67767;45.636;11.756;2023-09-19T02:23:27;21.30;92.90
73137;DHT22;67767;45.636;11.756;2023-09-19T02:25:57;21.30;93.40
73137;DHT22;67767;45.636;11.756;2023-09-19T02:28:32;21.20;93.50
73137;DHT22;67767;45.636;11.756;2023-09-19T02:30:58;21.10;93.40
73137;DHT22;67767;45.636;11.756;2023-09-19T02:33:24;21.10;93.50
73137;DHT22;67767;45.636;11.756;2023-09-19T02:35:54;21.10;94.00
73137;DHT22;67767;45.636;11.756;2023-09-19T02:38:20;21.00;94.10
73137;DHT22;67767;45.636;11.756;2023-09-19T02:40:50;21.00;92.80
73137;DHT22;67767;45.636;11.756;2023-09-19T02:43:16;20.90;92.50
73137;DHT22;67767;45.636;11.756;2023-09-19T02:45:42;20.90;92.80
73137;DHT22;67767;45.636;11.756;2023-09-19T02:48:08;21.00;92.60
73137;DHT22;67767;45.636;11.756;2023-09-19T02:50:34;21.00;92.70
73137;DHT22;67767;45.636;11.756;2023-09-19T02:53:00;21.00;92.60
73137;DHT22;67767;45.636;11.756;2023-09-19T02:55:26;21.10;92.80
73137;DHT22;67767;45.636;11.756;2023-09-19T02:57:53;21.00;92.70
73137;DHT22;67767;45.636;11.756;2023-09-19T03:00:21;21.00;93.50
73137;DHT22;67767;45.636;11.756;2023-09-19T03:02:54;21.00;93.20
73137;DHT22;67767;45.636;11.756;2023-09-19T03:05:21;21.00;93.20
73137;DHT22;67767;45.636;11.756;2023-09-19T03:07:49;20.90;93.70
73137;DHT22;67767;45.636;11.756;2023-09-19T03:10:16;20.80;95.60
73137;DHT22;67767;45.636;11.756;2023-09-19T03:12:43;20.80;96.00
73137;DHT22;67767;45.636;11.756;2023-09-19T03:15:09;20.70;96.10
73137;DHT22;67767;45.636;11.756;2023-09-19T03:17:35;20.80;95.80
73137;DHT22;67767;45.636;11.756;2023-09-19T03:20:02;20.70;96.20
73137;DHT22;67767;45.636;11.756;2023-09-19T03:22:28;20.80;95.40
73137;DHT22;67767;45.636;11.756;2023-09-19T03:24:53;20.70;95.00
73137;DHT22;67767;45.636;11.756;2023-09-19T03:27:19;20.80;95.60
73137;DHT22;67767;45.636;11.756;2023-09-19T03:29:46;20.70;95.20
73137;DHT22;67767;45.636;11.756;2023-09-19T03:32:12;20.70;95.00
73137;DHT22;67767;45.636;11.756;2023-09-19T03:34:39;20.60;95.00
73137;DHT22;67767;45.636;11.756;2023-09-19T03:37:11;20.70;94.90
73137;DHT22;67767;45.636;11.756;2023-09-19T03:39:37;20.60;94.90
73137;DHT22;67767;45.636;11.756;2023-09-19T03:42:03;20.70;94.60
73137;DHT22;67767;45.636;11.756;2023-09-19T03:44:30;20.80;94.70
73137;DHT22;67767;45.636;11.756;2023-09-19T03:46:56;20.70;94.10
73137;DHT22;67767;45.636;11.756;2023-09-19T03:49:22;20.70;94.30
73137;DHT22;67767;45.636;11.756;2023-09-19T03:51:48;20.70;94.00
73137;DHT22;67767;45.636;11.756;2023-09-19T03:54:14;20.70;93.90
73137;DHT22;67767;45.636;11.756;2023-09-19T03:56:39;20.70;93.80
73137;DHT22;67767;45.636;11.756;2023-09-19T03:59:05;20.80;93.60
73137;DHT22;67767;45.636;11.756;2023-09-19T04:01:31;20.70;93.70
73137;DHT22;67767;45.636;11.756;2023-09-19T04:03:58;20.80;93.70
73137;DHT22;67767;45.636;11.756;2023-09-19T04:06:24;20.80;93.30
73137;DHT22;67767;45.636;11.756;2023-09-19T04:08:50;20.70;93.20
73137;DHT22;67767;45.636;11.756;2023-09-19T04:11:15;20.70;93.40
73137;DHT22;67767;45.636;11.756;2023-09-19T04:13:41;20.70;93.60
73137;DHT22;67767;45.636;11.756;2023-09-19T04:16:06;20.80;93.70
73137;DHT22;67767;45.636;11.756;2023-09-19T04:18:33;20.80;93.50
73137;DHT22;67767;45.636;11.756;2023-09-19T04:21:02;20.70;93.80
73137;DHT22;67767;45.636;11.756;2023-09-19T04:23:29;20.70;93.70
73137;DHT22;67767;45.636;11.756;2023-09-19T04:25:55;20.70;93.80
73137;DHT22;67767;45.636;11.756;2023-09-19T04:28:21;20.60;93.60
73137;DHT22;67767;45.636;11.756;2023-09-19T04:30:47;20.60;93.30
73137;DHT22;67767;45.636;11.756;2023-09-19T04:33:13;20.60;92.70
73137;DHT22;67767;45.636;11.756;2023-09-19T04:35:41;20.50;92.80
73137;DHT22;67767;45.636;11.756;2023-09-19T04:38:08;20.50;93.30
73137;DHT22;67767;45.636;11.756;2023-09-19T04:40:34;20.40;93.50
73137;DHT22;67767;45.636;11.756;2023-09-19T04:43:00;20.50;93.60
73137;DHT22;67767;45.636;11.756;2023-09-19T04:45:26;20.50;93.60
73137;DHT22;67767;45.636;11.756;2023-09-19T04:47:53;20.50;93.40
73137;DHT22;67767;45.636;11.756;2023-09-19T04:50:19;20.40;93.70
73137;DHT22;67767;45.636;11.756;2023-09-19T04:52:49;20.40;93.60
73137;DHT22;67767;45.636;11.756;2023-09-19T04:55:17;20.50;93.20
73137;DHT22;67767;45.636;11.756;2023-09-19T04:57:52;20.50;93.20
73137;DHT22;67767;45.636;11.756;2023-09-19T05:00:22;20.50;93.30
73137;DHT22;67767;45.636;11.756;2023-09-19T05:02:56;20.50;93.00
73137;DHT22;67767;45.636;11.756;2023-09-19T05:05:22;20.50;92.80
73137;DHT22;67767;45.636;11.756;2023-09-19T05:07:49;20.50;92.90
73137;DHT22;67767;45.636;11.756;2023-09-19T05:10:15;20.50;92.80
73137;DHT22;67767;45.636;11.756;2023-09-19T05:12:44;20.50;92.80
73137;DHT22;67767;45.636;11.756;2023-09-19T05:15:12;20.40;93.30
73137;DHT22;67767;45.636;11.756;2023-09-19T05:17:38;20.40;93.20
73137;DHT22;67767;45.636;11.756;2023-09-19T05:20:05;20.40;93.00
73137;DHT22;67767;45.636;11.756;2023-09-19T05:23:07;20.40;92.80
73137;DHT22;67767;45.636;11.756;2023-09-19T05:25:35;20.60;92.80
73137;DHT22;67767;45.636;11.756;2023-09-19T05:28:09;20.70;92.40
73137;DHT22;67767;45.636;11.756;2023-09-19T05:30:37;20.70;92.30
73137;DHT22;67767;45.636;11.756;2023-09-19T05:33:06;20.80;92.40
73137;DHT22;67767;45.636;11.756;2023-09-19T05:35:33;20.90;90.70
73137;DHT22;67767;45.636;11.756;2023-09-19T05:37:58;20.90;90.50
73137;DHT22;67767;45.636;11.756;2023-09-19T05:40:25;21.00;90.40
73137;DHT22;67767;45.636;11.756;2023-09-19T05:42:51;21.10;90.50
73137;DHT22;67767;45.636;11.756;2023-09-19T05:45:17;21.30;90.20
73137;DHT22;67767;45.636;11.756;2023-09-19T05:47:48;21.30;90.30
73137;DHT22;67767;45.636;11.756;2023-09-19T05:50:14;21.40;90.10
73137;DHT22;67767;45.636;11.756;2023-09-19T05:52:42;21.50;89.80
73137;DHT22;67767;45.636;11.756;2023-09-19T05:55:10;21.60;89.50
73137;DHT22;67767;45.636;11.756;2023-09-19T05:57:37;21.50;89.50
73137;DHT22;67767;45.636;11.756;2023-09-19T06:00:08;21.80;89.30
73137;DHT22;67767;45.636;11.756;2023-09-19T06:02:37;21.90;88.80
73137;DHT22;67767;45.636;11.756;2023-09-19T06:05:05;22.00;88.50
73137;DHT22;67767;45.636;11.756;2023-09-19T06:07:32;22.10;88.30
73137;DHT22;67767;45.636;11.756;2023-09-19T06:10:03;22.20;88.20
73137;DHT22;67767;45.636;11.756;2023-09-19T06:12:31;22.30;88.00
73137;DHT22;67767;45.636;11.756;2023-09-19T06:14:58;22.30;87.90
73137;DHT22;67767;45.636;11.756;2023-09-19T06:17:25;22.50;87.80
73137;DHT22;67767;45.636;11.756;2023-09-19T06:19:53;22.40;86.90
73137;DHT22;67767;45.636;11.756;2023-09-19T06:22:18;22.60;86.80
73137;DHT22;67767;45.636;11.756;2023-09-19T06:24:44;22.70;86.20
73137;DHT22;67767;45.636;11.756;2023-09-19T06:27:12;22.80;86.30
73137;DHT22;67767;45.636;11.756;2023-09-19T06:29:38;22.80;86.30
73137;DHT22;67767;45.636;11.756;2023-09-19T06:32:08;23.00;85.90
73137;DHT22;67767;45.636;11.756;2023-09-19T06:34:37;23.10;85.70
73137;DHT22;67767;45.636;11.756;2023-09-19T06:37:08;23.20;85.50
73137;DHT22;67767;45.636;11.756;2023-09-19T06:39:34;23.20;85.70
73137;DHT22;67767;45.636;11.756;2023-09-19T06:41:59;23.30;85.30
73137;DHT22;67767;45.636;11.756;2023-09-19T06:44:27;23.30;85.40
73137;DHT22;67767;45.636;11.756;2023-09-19T06:46:55;23.30;85.60
73137;DHT22;67767;45.636;11.756;2023-09-19T06:49:20;23.50;85.20
73137;DHT22;67767;45.636;11.756;2023-09-19T06:51:46;23.50;85.20
73137;DHT22;67767;45.636;11.756;2023-09-19T06:54:12;23.70;84.90
73137;DHT22;67767;45.636;11.756;2023-09-19T06:56:37;23.70;84.90
73137;DHT22;67767;45.636;11.756;2023-09-19T06:59:03;23.90;84.90
73137;DHT22;67767;45.636;11.756;2023-09-19T07:01:31;24.00;84.80
73137;DHT22;67767;45.636;11.756;2023-09-19T07:03:57;23.90;84.60
73137;DHT22;67767;45.636;11.756;2023-09-19T07:06:23;23.90;84.60
73137;DHT22;67767;45.636;11.756;2023-09-19T07:08:49;24.00;84.60
73137;DHT22;67767;45.636;11.756;2023-09-19T07:11:15;24.20;84.40
73137;DHT22;67767;45.636;11.756;2023-09-19T07:13:41;24.40;83.70
73137;DHT22;67767;45.636;11.756;2023-09-19T07:16:07;24.60;83.60
73137;DHT22;67767;45.636;11.756;2023-09-19T07:18:35;24.70;83.40
73137;DHT22;67767;45.636;11.756;2023-09-19T07:21:02;24.90;83.10
73137;DHT22;67767;45.636;11.756;2023-09-19T07:23:31;25.10;82.30
73137;DHT22;67767;45.636;11.756;2023-09-19T07:26:03;25.10;82.50
73137;DHT22;67767;45.636;11.756;2023-09-19T07:28:31;25.20;82.30
73137;DHT22;67767;45.636;11.756;2023-09-19T07:30:56;25.30;81.60
73137;DHT22;67767;45.636;11.756;2023-09-19T07:33:22;25.60;81.50
73137;DHT22;67767;45.636;11.756;2023-09-19T07:35:52;25.80;80.80
73137;DHT22;67767;45.636;11.756;2023-09-19T07:38:18;25.70;81.10
73137;DHT22;67767;45.636;11.756;2023-09-19T07:40:43;25.70;81.30
73137;DHT22;67767;45.636;11.756;2023-09-19T07:43:09;25.60;81.60
73137;DHT22;67767;45.636;11.756;2023-09-19T07:45:34;25.80;80.90
73137;DHT22;67767;45.636;11.756;2023-09-19T07:48:02;26.00;80.90
73137;DHT22;67767;45.636;11.756;2023-09-19T07:50:30;26.10;80.70
73137;DHT22;67767;45.636;11.756;2023-09-19T07:52:56;26.00;80.60
73137;DHT22;67767;45.636;11.756;2023-09-19T07:55:22;26.10;80.60
73137;DHT22;67767;45.636;11.756;2023-09-19T07:57:52;26.20;80.10
73137;DHT22;67767;45.636;11.756;2023-09-19T08:00:18;26.40;79.70
73137;DHT22;67767;45.636;11.756;2023-09-19T08:02:44;26.60;79.60
73137;DHT22;67767;45.636;11.756;2023-09-19T08:05:11;26.70;79.60
73137;DHT22;67767;45.636;11.756;2023-09-19T08:07:39;26.70;79.80
73137;DHT22;67767;45.636;11.756;2023-09-19T08:10:05;26.70;79.80
73137;DHT22;67767;45.636;11.756;2023-09-19T08:12:39;26.80;79.30
73137;DHT22;67767;45.636;11.756;2023-09-19T08:15:15;26.80;79.90
73137;DHT22;67767;45.636;11.756;2023-09-19T08:17:41;26.50;80.30
73137;DHT22;67767;45.636;11.756;2023-09-19T08:20:08;26.50;80.00
73137;DHT22;67767;45.636;11.756;2023-09-19T08:22:42;26.50;80.00
73137;DHT22;67767;45.636;11.756;2023-09-19T08:25:09;26.50;79.70
73137;DHT22;67767;45.636;11.756;2023-09-19T08:27:35;26.90;79.50
73137;DHT22;67767;45.636;11.756;2023-09-19T08:30:01;27.00;79.40
73137;DHT22;67767;45.636;11.756;2023-09-19T08:32:29;27.10;78.70
73137;DHT22;67767;45.636;11.756;2023-09-19T08:34:54;27.10;79.00
73137;DHT22;67767;45.636;11.756;2023-09-19T08:37:20;27.00;78.90
73137;DHT22;67767;45.636;11.756;2023-09-19T08:39:46;27.00;78.60
73137;DHT22;67767;45.636;11.756;2023-09-19T08:42:11;27.20;78.70
73137;DHT22;67767;45.636;11.756;2023-09-19T08:44:38;27.30;78.50
73137;DHT22;67767;45.636;11.756;2023-09-19T08:47:15;27.20;78.80
73137;DHT22;67767;45.636;11.756;2023-09-19T08:50:11;27.30;78.60
73137;DHT22;67767;45.636;11.756;2023-09-19T08:52:43;27.40;78.90
73137;DHT22;67767;45.636;11.756;2023-09-19T08:55:13;27.30;78.40
73137;DHT22;67767;45.636;11.756;2023-09-19T08:57:46;27.20;78.30
73137;DHT22;67767;45.636;11.756;2023-09-19T09:00:15;27.30;78.30
73137;DHT22;67767;45.636;11.756;2023-09-19T09:02:47;27.60;78.70
73137;DHT22;67767;45.636;11.756;2023-09-19T09:05:14;27.70;78.20
73137;DHT22;67767;45.636;11.756;2023-09-19T09:07:41;27.80;78.00
73137;DHT22;67767;45.636;11.756;2023-09-19T09:10:09;27.60;78.30
73137;DHT22;67767;45.636;11.756;2023-09-19T09:12:36;27.30;78.70
73137;DHT22;67767;45.636;11.756;2023-09-19T09:15:06;27.80;77.70
73137;DHT22;67767;45.636;11.756;2023-09-19T09:17:34;28.00;77.20
73137;DHT22;67767;45.636;11.756;2023-09-19T09:20:00;28.10;77.00
73137;DHT22;67767;45.636;11.756;2023-09-19T09:22:25;28.20;76.80
73137;DHT22;67767;45.636;11.756;2023-09-19T09:24:59;28.20;76.80
73137;DHT22;67767;45.636;11.756;2023-09-19T09:27:29;28.20;76.30
73137;DHT22;67767;45.636;11.756;2023-09-19T09:29:54;28.30;76.40
73137;DHT22;67767;45.636;11.756;2023-09-19T09:32:30;28.30;75.70
73137;DHT22;67767;45.636;11.756;2023-09-19T09:35:02;28.40;75.90
73137;DHT22;67767;45.636;11.756;2023-09-19T09:37:35;28.40;75.50
73137;DHT22;67767;45.636;11.756;2023-09-19T09:40:06;28.30;75.70
73137;DHT22;67767;45.636;11.756;2023-09-19T09:42:40;28.20;76.20
73137;DHT22;67767;45.636;11.756;2023-09-19T09:45:18;28.70;75.40
73137;DHT22;67767;45.636;11.756;2023-09-19T09:48:00;28.80;74.80
73137;DHT22;67767;45.636;11.756;2023-09-19T09:50:33;28.80;74.40
73137;DHT22;67767;45.636;11.756;2023-09-19T09:53:22;28.70;74.00
73137;DHT22;67767;45.636;11.756;2023-09-19T09:55:59;28.30;74.40
73137;DHT22;67767;45.636;11.756;2023-09-19T09:58:51;28.60;74.10
73137;DHT22;67767;45.636;11.756;2023-09-19T10:01:21;28.80;74.10
73137;DHT22;67767;45.636;11.756;2023-09-19T10:03:57;29.10;73.60
73137;DHT22;67767;45.636;11.756;2023-09-19T10:06:23;29.20;73.30
73137;DHT22;67767;45.636;11.756;2023-09-19T10:09:15;29.40;73.60
73137;DHT22;67767;45.636;11.756;2023-09-19T10:11:49;29.50;73.10
73137;DHT22;67767;45.636;11.756;2023-09-19T10:14:26;29.90;71.50
73137;DHT22;67767;45.636;11.756;2023-09-19T10:16:57;30.00;71.30
73137;DHT22;67767;45.636;11.756;2023-09-19T10:19:33;29.50;72.00
73137;DHT22;67767;45.636;11.756;2023-09-19T10:22:02;29.60;72.20
73137;DHT22;67767;45.636;11.756;2023-09-19T10:24:30;30.10;71.10
73137;DHT22;67767;45.636;11.756;2023-09-19T10:26:57;30.30;70.40
73137;DHT22;67767;45.636;11.756;2023-09-19T10:29:24;30.30;70.40
73137;DHT22;67767;45.636;11.756;2023-09-19T10:31:52;30.40;69.20
73137;DHT22;67767;45.636;11.756;2023-09-19T10:34:19;29.80;70.70
73137;DHT22;67767;45.636;11.756;2023-09-19T10:36:46;29.60;70.60
73137;DHT22;67767;45.636;11.756;2023-09-19T10:39:16;29.60;70.20
73137;DHT22;67767;45.636;11.756;2023-09-19T10:41:50;29.50;70.60
73137;DHT22;67767;45.636;11.756;2023-09-19T10:44:25;29.70;70.10
73137;DHT22;67767;45.636;11.756;2023-09-19T10:46:52;30.20;69.80
73137;DHT22;67767;45.636;11.756;2023-09-19T10:49:20;30.00;70.30
73137;DHT22;67767;45.636;11.756;2023-09-19T10:51:47;29.90;69.90
73137;DHT22;67767;45.636;11.756;2023-09-19T10:54:17;30.20;69.50
73137;DHT22;67767;45.636;11.756;2023-09-19T10:56:48;30.30;69.30
73137;DHT22;67767;45.636;11.756;2023-09-19T10:59:19;30.40;69.80
73137;DHT22;67767;45.636;11.756;2023-09-19T11:01:53;30.50;69.20
73137;DHT22;67767;45.636;11.756;2023-09-19T11:04:29;31.10;68.20
73137;DHT22;67767;45.636;11.756;2023-09-19T11:07:08;31.00;67.80
73137;DHT22;67767;45.636;11.756;2023-09-19T11:15:07;30.90;67.80
73137;DHT22;67767;45.636;11.756;2023-09-19T11:17:43;30.80;66.60
73137;DHT22;67767;45.636;11.756;2023-09-19T11:30:51;32.30;62.20
73137;DHT22;67767;45.636;11.756;2023-09-19T11:33:30;32.30;61.40
73137;DHT22;67767;45.636;11.756;2023-09-19T11:49:19;31.80;63.00
73137;DHT22;67767;45.636;11.756;2023-09-19T11:51:52;32.20;60.80
73137;DHT22;67767;45.636;11.756;2023-09-19T11:54:18;32.10;61.10
73137;DHT22;67767;45.636;11.756;2023-09-19T11:56:48;33.20;58.70
73137;DHT22;67767;45.636;11.756;2023-09-19T11:59:26;33.30;57.80
73137;DHT22;67767;45.636;11.756;2023-09-19T12:02:05;33.10;57.90
73137;DHT22;67767;45.636;11.756;2023-09-19T12:04:42;32.90;58.40
73137;DHT22;67767;45.636;11.756;2023-09-19T12:07:15;33.30;57.90
73137;DHT22;67767;45.636;11.756;2023-09-19T12:09:48;33.60;56.50
73137;DHT22;67767;45.636;11.756;2023-09-19T12:12:25;34.50;55.20
73137;DHT22;67767;45.636;11.756;2023-09-19T12:14:56;34.50;53.10
73137;DHT22;67767;45.636;11.756;2023-09-19T12:17:40;34.50;53.00
73137;DHT22;67767;45.636;11.756;2023-09-19T12:20:08;34.90;50.90
73137;DHT22;67767;45.636;11.756;2023-09-19T12:22:46;34.70;51.40
73137;DHT22;67767;45.636;11.756;2023-09-19T12:25:13;34.20;53.30
73137;DHT22;67767;45.636;11.756;2023-09-19T12:27:46;33.90;53.20
73137;DHT22;67767;45.636;11.756;2023-09-19T12:30:27;33.70;54.00
73137;DHT22;67767;45.636;11.756;2023-09-19T12:32:54;33.50;55.40
73137;DHT22;67767;45.636;11.756;2023-09-19T12:35:28;33.20;56.70
73137;DHT22;67767;45.636;11.756;2023-09-19T12:37:56;32.80;57.60
73137;DHT22;67767;45.636;11.756;2023-09-19T12:40:22;32.70;57.90
73137;DHT22;67767;45.636;11.756;2023-09-19T12:42:53;32.50;58.60
73137;DHT22;67767;45.636;11.756;2023-09-19T12:45:32;32.10;59.80
73137;DHT22;67767;45.636;11.756;2023-09-19T12:48:23;31.60;60.80
73137;DHT22;67767;45.636;11.756;2023-09-19T12:51:10;31.60;61.40
73137;DHT22;67767;45.636;11.756;2023-09-19T12:53:38;31.70;61.50
73137;DHT22;67767;45.636;11.756;2023-09-19T12:56:13;31.40;61.40
73137;DHT22;67767;45.636;11.756;2023-09-19T12:58:59;31.50;60.60
73137;DHT22;67767;45.636;11.756;2023-09-19T13:01:28;31.30;61.50
73137;DHT22;67767;45.636;11.756;2023-09-19T13:06:51;31.10;61.60
73137;DHT22;67767;45.636;11.756;2023-09-19T13:09:21;31.10;61.10
73137;DHT22;67767;45.636;11.756;2023-09-19T13:11:48;31.80;58.40
73137;DHT22;67767;45.636;11.756;2023-09-19T13:17:02;32.80;56.60
73137;DHT22;67767;45.636;11.756;2023-09-19T13:19:50;32.60;57.20
73137;DHT22;67767;45.636;11.756;2023-09-19T13:22:41;32.40;57.60
73137;DHT22;67767;45.636;11.756;2023-09-19T13:25:16;32.30;57.30
73137;DHT22;67767;45.636;11.756;2023-09-19T13:30:14;31.80;59.10
73137;DHT22;67767;45.636;11.756;2023-09-19T13:32:40;31.50;59.90
73137;DHT22;67767;45.636;11.756;2023-09-19T13:35:07;31.30;59.20
73137;DHT22;67767;45.636;11.756;2023-09-19T13:37:37;31.20;58.60
73137;DHT22;67767;45.636;11.756;2023-09-19T13:40:07;32.80;54.10
73137;DHT22;67767;45.636;11.756;2023-09-19T13:42:33;33.60;52.80
73137;DHT22;67767;45.636;11.756;2023-09-19T13:45:00;33.60;52.10
73137;DHT22;67767;45.636;11.756;2023-09-19T13:47:25;34.20;49.90
73137;DHT22;67767;45.636;11.756;2023-09-19T13:49:52;35.00;46.50
73137;DHT22;67767;45.636;11.756;2023-09-19T13:52:21;35.70;46.00
73137;DHT22;67767;45.636;11.756;2023-09-19T13:54:51;36.60;45.50
73137;DHT22;67767;45.636;11.756;2023-09-19T13:57:18;36.70;46.00
73137;DHT22;67767;45.636;11.756;2023-09-19T13:59:44;35.40;46.80
73137;DHT22;67767;45.636;11.756;2023-09-19T14:02:10;35.50;46.30
73137;DHT22;67767;45.636;11.756;2023-09-19T14:04:35;36.60;44.70
73137;DHT22;67767;45.636;11.756;2023-09-19T14:07:02;37.60;42.50
73137;DHT22;67767;45.636;11.756;2023-09-19T14:09:29;37.70;42.60
73137;DHT22;67767;45.636;11.756;2023-09-19T14:11:56;38.40;41.10
73137;DHT22;67767;45.636;11.756;2023-09-19T14:14:22;38.90;40.50
73137;DHT22;67767;45.636;11.756;2023-09-19T14:16:48;37.30;44.80
73137;DHT22;67767;45.636;11.756;2023-09-19T14:19:14;37.40;44.30
73137;DHT22;67767;45.636;11.756;2023-09-19T14:21:42;37.80;43.60
73137;DHT22;67767;45.636;11.756;2023-09-19T14:24:08;37.30;43.00
73137;DHT22;67767;45.636;11.756;2023-09-19T14:26:38;36.70;45.20
73137;DHT22;67767;45.636;11.756;2023-09-19T14:29:04;35.90;46.20
73137;DHT22;67767;45.636;11.756;2023-09-19T14:31:29;34.70;47.70
73137;DHT22;67767;45.636;11.756;2023-09-19T14:33:56;34.20;49.80
73137;DHT22;67767;45.636;11.756;2023-09-19T14:36:28;33.60;51.80
73137;DHT22;67767;45.636;11.756;2023-09-19T14:38:55;33.90;51.30
73137;DHT22;67767;45.636;11.756;2023-09-19T14:41:23;33.70;51.40
73137;DHT22;67767;45.636;11.756;2023-09-19T14:43:54;33.10;52.50
73137;DHT22;67767;45.636;11.756;2023-09-19T14:46:21;32.80;52.30
73137;DHT22;67767;45.636;11.756;2023-09-19T14:48:46;32.90;51.60
73137;DHT22;67767;45.636;11.756;2023-09-19T14:51:13;33.00;51.60
73137;DHT22;67767;45.636;11.756;2023-09-19T14:53:40;33.10;52.40
73137;DHT22;67767;45.636;11.756;2023-09-19T14:56:08;33.30;52.80
73137;DHT22;67767;45.636;11.756;2023-09-19T14:58:34;33.00;52.50
73137;DHT22;67767;45.636;11.756;2023-09-19T15:01:11;33.20;52.50
73137;DHT22;67767;45.636;11.756;2023-09-19T15:03:37;32.90;53.10
73137;DHT22;67767;45.636;11.756;2023-09-19T15:06:07;32.90;53.60
73137;DHT22;67767;45.636;11.756;2023-09-19T15:08:35;33.10;53.10
73137;DHT22;67767;45.636;11.756;2023-09-19T15:11:07;32.80;53.30
73137;DHT22;67767;45.636;11.756;2023-09-19T15:13:33;32.60;53.10
73137;DHT22;67767;45.636;11.756;2023-09-19T15:16:06;32.60;52.80
73137;DHT22;67767;45.636;11.756;2023-09-19T15:18:36;32.60;53.10
73137;DHT22;67767;45.636;11.756;2023-09-19T15:21:10;32.50;53.30
73137;DHT22;67767;45.636;11.756;2023-09-19T15:23:38;32.40;53.60
73137;DHT22;67767;45.636;11.756;2023-09-19T15:26:04;32.30;53.70
73137;DHT22;67767;45.636;11.756;2023-09-19T15:28:31;32.50;53.50
73137;DHT22;67767;45.636;11.756;2023-09-19T15:31:05;32.50;53.40
73137;DHT22;67767;45.636;11.756;2023-09-19T15:33:32;32.10;54.00
73137;DHT22;67767;45.636;11.756;2023-09-19T15:38:27;31.40;57.90
73137;DHT22;67767;45.636;11.756;2023-09-19T15:40:54;31.00;57.30
73137;DHT22;67767;45.636;11.756;2023-09-19T15:43:20;30.20;56.80
73137;DHT22;67767;45.636;11.756;2023-09-19T15:45:47;29.60;58.20
73137;DHT22;67767;45.636;11.756;2023-09-19T15:48:14;29.30;58.50
73137;DHT22;67767;45.636;11.756;2023-09-19T15:50:39;29.20;59.90
73137;DHT22;67767;45.636;11.756;2023-09-19T15:53:07;28.90;63.00
73137;DHT22;67767;45.636;11.756;2023-09-19T15:55:40;28.70;64.50
73137;DHT22;67767;45.636;11.756;2023-09-19T15:58:07;28.70;65.50
73137;DHT22;67767;45.636;11.756;2023-09-19T16:00:33;28.60;66.60
73137;DHT22;67767;45.636;11.756;2023-09-19T16:03:02;28.50;67.10
73137;DHT22;67767;45.636;11.756;2023-09-19T16:05:34;28.50;68.20
73137;DHT22;67767;45.636;11.756;2023-09-19T16:08:03;28.50;68.60
73137;DHT22;67767;45.636;11.756;2023-09-19T16:10:29;28.30;69.70
73137;DHT22;67767;45.636;11.756;2023-09-19T16:12:55;28.00;69.90
73137;DHT22;67767;45.636;11.756;2023-09-19T16:15:20;28.00;70.30
73137;DHT22;67767;45.636;11.756;2023-09-19T16:17:46;28.20;70.50
73137;DHT22;67767;45.636;11.756;2023-09-19T16:20:12;28.30;70.10
73137;DHT22;67767;45.636;11.756;2023-09-19T16:22:39;28.10;70.50
73137;DHT22;67767;45.636;11.756;2023-09-19T16:25:06;27.80;70.60
73137;DHT22;67767;45.636;11.756;2023-09-19T16:27:31;27.90;70.60
73137;DHT22;67767;45.636;11.756;2023-09-19T16:29:57;27.90;70.70
73137;DHT22;67767;45.636;11.756;2023-09-19T16:32:23;27.80;71.20
73137;DHT22;67767;45.636;11.756;2023-09-19T16:34:48;27.90;70.30